Time;durP1;ratioP1;P1;durP2;ratioP2;P2;SDS_P1;SDS_P2;PMS_P1;PMS_P2;Temp;Humidity;BMP_temperature;BMP_pressure;BME280_temperature;BME280_humidity;BME280_pressure;Samples;Min_cycle;Max_cycle;Signal;HPM_P1;HPM_P2
2021/07/17 00:00:07;;;;;;;4.07;2.15;;;15.20;99.90;;;;;;4995439;28;20363;-80
2021/07/17 00:02:33;;;;;;;6.82;2.10;;;15.20;99.90;;;;;;5012887;28;20060;-81
2021/07/17 00:04:59;;;;;;;5.85;2.47;;;15.20;99.90;;;;;;5030026;28;20561;-80
2021/07/17 00:07:24;;;;;;;4.63;2.78;;;15.00;99.90;;;;;;5032335;28;20434;-80
2021/07/17 00:09:50;;;;;;;9.98;2.97;;;15.00;99.90;;;;;;5031088;28;20100;-81
2021/07/17 00:12:16;;;;;;;8.57;3.08;;;15.00;99.90;;;;;;5031559;28;20034;-81
2021/07/17 00:14:41;;;;;;;6.47;2.63;;;15.00;99.90;;;;;;5031113;28;20613;-81
2021/07/17 00:17:07;;;;;;;8.48;2.63;;;15.00;99.90;;;;;;5031485;28;20033;-80
2021/07/17 00:19:33;;;;;;;6.00;2.65;;;15.00;99.90;;;;;;5031464;28;20041;-81
2021/07/17 00:21:58;;;;;;;9.18;2.90;;;15.00;99.90;;;;;;5031762;28;20531;-81
2021/07/17 00:24:24;;;;;;;7.20;2.97;;;14.90;99.90;;;;;;5031581;28;20073;-81
2021/07/17 00:26:50;;;;;;;6.93;3.92;;;15.00;99.90;;;;;;5031984;28;20037;-80
2021/07/17 00:29:15;;;;;;;8.52;4.18;;;14.90;99.90;;;;;;5009624;28;20129;-80
2021/07/17 00:31:41;;;;;;;6.75;4.20;;;14.90;99.90;;;;;;5012178;28;20044;-80
2021/07/17 00:34:07;;;;;;;7.68;4.45;;;14.70;99.90;;;;;;5013128;28;20152;-81
2021/07/17 00:36:32;;;;;;;10.25;4.30;;;14.60;99.90;;;;;;5031308;28;20033;-81
2021/07/17 00:38:58;;;;;;;7.40;3.40;;;14.50;99.90;;;;;;5031485;28;20033;-81
2021/07/17 00:41:24;;;;;;;7.72;3.42;;;14.50;99.90;;;;;;5029521;28;20120;-81
2021/07/17 00:43:49;;;;;;;7.55;3.38;;;14.50;99.90;;;;;;5031513;28;20034;-80
2021/07/17 00:46:15;;;;;;;8.38;3.90;;;14.60;99.90;;;;;;5030329;28;20108;-80
2021/07/17 00:48:41;;;;;;;6.63;3.58;;;14.60;99.90;;;;;;5031234;28;20093;-80
2021/07/17 00:51:06;;;;;;;8.10;3.15;;;14.70;99.90;;;;;;5031262;28;20021;-80
2021/07/17 00:53:32;;;;;;;8.40;3.22;;;14.80;99.90;;;;;;5022556;28;20037;-80
2021/07/17 00:55:59;;;;;;;8.98;3.28;;;14.80;99.90;;;;;;5017614;28;20030;-80
2021/07/17 00:58:32;;;;;;;7.95;3.13;;;14.80;99.90;;;;;;5028095;28;20644;-80
2021/07/17 01:00:58;;;;;;;9.93;3.42;;;14.80;99.90;;;;;;5030901;28;20385;-80
2021/07/17 01:03:27;;;;;;;9.23;3.10;;;14.80;99.90;;;;;;5030500;28;20827;-81
2021/07/17 01:05:54;;;;;;;8.15;3.40;;;14.80;99.90;;;;;;5028671;28;20033;-81
2021/07/17 01:08:20;;;;;;;5.05;2.85;;;14.80;99.90;;;;;;4995701;28;20746;-80
2021/07/17 01:10:47;;;;;;;8.30;3.08;;;14.80;99.90;;;;;;5010946;28;20026;-80
2021/07/17 01:13:12;;;;;;;5.35;2.85;;;14.80;99.90;;;;;;5028765;28;20029;-80
2021/07/17 01:15:38;;;;;;;8.68;3.67;;;14.70;99.90;;;;;;5030536;28;20025;-80
2021/07/17 01:18:05;;;;;;;8.07;3.08;;;14.70;99.90;;;;;;5029439;28;20060;-81
2021/07/17 01:20:32;;;;;;;10.13;3.50;;;14.70;99.90;;;;;;5020442;28;20068;-81
2021/07/17 01:22:58;;;;;;;8.05;4.47;;;14.70;99.90;;;;;;5024363;28;20044;-80
2021/07/17 01:25:26;;;;;;;9.68;5.13;;;14.70;99.90;;;;;;5030174;28;20029;-80
2021/07/17 01:27:57;;;;;;;9.32;5.13;;;14.70;99.90;;;;;;5029561;28;20068;-80
2021/07/17 01:30:28;;;;;;;10.10;5.82;;;14.60;99.90;;;;;;5030482;28;20840;-80
2021/07/17 01:32:54;;;;;;;13.93;4.40;;;14.60;99.90;;;;;;5030874;28;20645;-80
2021/07/17 01:35:20;;;;;;;8.50;6.13;;;14.50;99.90;;;;;;5029521;28;20486;-80
2021/07/17 01:37:46;;;;;;;12.55;5.68;;;14.40;99.90;;;;;;5029714;28;20042;-80
2021/07/17 01:40:19;;;;;;;12.02;4.75;;;14.30;99.90;;;;;;5030369;28;20407;-81
2021/07/17 01:42:46;;;;;;;10.70;4.63;;;14.30;99.90;;;;;;5034751;28;20040;-81
2021/07/17 01:45:26;;;;;;;10.48;3.92;;;14.20;99.90;;;;;;5049907;28;20630;-80
2021/07/17 01:47:52;;;;;;;13.73;3.92;;;14.30;99.90;;;;;;5041640;28;20034;-81
2021/07/17 01:50:18;;;;;;;12.82;4.20;;;14.30;99.90;;;;;;5010064;28;20029;-80
2021/07/17 01:52:48;;;;;;;7.90;3.40;;;14.30;99.90;;;;;;5010932;28;20040;-81
2021/07/17 01:55:14;;;;;;;12.23;4.03;;;14.40;99.90;;;;;;5029360;28;20059;-80
2021/07/17 01:57:40;;;;;;;8.15;3.65;;;14.30;99.90;;;;;;5011653;28;20045;-81
2021/07/17 02:00:06;;;;;;;12.48;4.13;;;14.20;99.90;;;;;;5022660;28;20033;-81
2021/07/17 02:02:32;;;;;;;11.13;4.15;;;14.20;99.90;;;;;;5008287;28;20038;-81
2021/07/17 02:05:02;;;;;;;14.57;5.95;;;14.20;99.90;;;;;;5012778;28;20030;-81
2021/07/17 02:07:28;;;;;;;10.88;6.07;;;14.20;99.90;;;;;;5010265;28;20542;-81
2021/07/17 02:09:54;;;;;;;11.63;8.13;;;14.30;99.90;;;;;;5023712;28;20036;-80
2021/07/17 02:12:19;;;;;;;10.85;7.53;;;14.20;99.90;;;;;;5029080;28;20044;-81
2021/07/17 02:14:45;;;;;;;10.73;7.45;;;14.20;99.90;;;;;;5029043;28;20102;-81
2021/07/17 02:17:11;;;;;;;9.25;6.80;;;14.20;99.90;;;;;;5029658;28;20042;-81
2021/07/17 02:19:37;;;;;;;9.15;5.38;;;14.20;99.90;;;;;;5020010;28;20042;-80
2021/07/17 02:22:04;;;;;;;10.13;4.10;;;14.20;99.90;;;;;;5009074;28;20084;-80
2021/07/17 02:24:30;;;;;;;7.70;3.60;;;14.20;99.90;;;;;;5015593;28;20449;-81
2021/07/17 02:26:55;;;;;;;5.63;3.33;;;14.20;99.90;;;;;;5029376;28;20124;-80
2021/07/17 02:29:21;;;;;;;7.00;3.50;;;14.10;99.90;;;;;;5028673;28;20037;-80
2021/07/17 02:31:47;;;;;;;9.65;3.88;;;14.00;99.90;;;;;;5029518;28;20080;-80
2021/07/17 02:34:12;;;;;;;9.63;3.95;;;14.00;99.90;;;;;;5014746;28;20018;-81
2021/07/17 02:36:38;;;;;;;7.18;3.40;;;14.00;99.90;;;;;;5018467;28;20124;-81
2021/07/17 02:39:06;;;;;;;8.90;4.38;;;14.00;99.90;;;;;;5009312;28;20041;-80
2021/07/17 02:41:32;;;;;;;9.20;4.53;;;13.90;99.90;;;;;;5027988;28;20041;-80
2021/07/17 02:43:58;;;;;;;8.50;4.55;;;13.90;99.90;;;;;;5029386;28;20625;-80
2021/07/17 02:46:24;;;;;;;8.63;3.78;;;13.90;99.90;;;;;;5029070;28;20041;-80
2021/07/17 02:48:49;;;;;;;6.45;3.78;;;14.00;99.90;;;;;;5029616;28;20029;-80
2021/07/17 02:51:15;;;;;;;7.82;3.03;;;14.00;99.90;;;;;;5010546;28;20037;-81
2021/07/17 02:53:40;;;;;;;5.68;2.78;;;14.00;99.90;;;;;;5009816;28;20576;-81
2021/07/17 02:56:06;;;;;;;9.23;2.50;;;14.00;99.90;;;;;;5019693;28;20037;-80
2021/07/17 02:58:32;;;;;;;5.53;3.28;;;14.10;99.90;;;;;;5010663;28;20033;-81
2021/07/17 03:00:58;;;;;;;13.38;3.70;;;14.10;99.90;;;;;;5017055;28;20045;-81
2021/07/17 03:03:24;;;;;;;7.00;3.40;;;14.10;99.90;;;;;;5029262;28;20029;-81
2021/07/17 03:05:50;;;;;;;8.30;3.75;;;14.20;99.90;;;;;;5037868;28;20099;-81
2021/07/17 03:08:19;;;;;;;6.45;3.53;;;14.10;99.90;;;;;;5052347;28;20112;-81
2021/07/17 03:10:45;;;;;;;9.40;3.58;;;14.00;99.90;;;;;;5048489;28;20025;-81
2021/07/17 03:13:11;;;;;;;9.13;3.20;;;13.90;99.90;;;;;;5032557;28;20105;-81
2021/07/17 03:15:37;;;;;;;11.82;3.85;;;13.90;99.90;;;;;;5023796;28;20033;-81
2021/07/17 03:18:03;;;;;;;6.15;3.58;;;13.80;99.90;;;;;;5027182;28;20534;-80
2021/07/17 03:20:29;;;;;;;10.50;4.88;;;13.90;99.90;;;;;;5013039;28;20037;-81
2021/07/17 03:22:55;;;;;;;8.10;5.70;;;13.80;99.90;;;;;;5029778;28;20037;-81
2021/07/17 03:25:20;;;;;;;5.90;3.17;;;13.90;99.90;;;;;;5031188;28;20171;-81
2021/07/17 03:27:46;;;;;;;4.32;2.38;;;13.80;99.90;;;;;;5032728;28;20042;-81
2021/07/17 03:30:12;;;;;;;6.53;2.22;;;13.90;99.90;;;;;;5032110;28;20088;-81
2021/07/17 03:32:38;;;;;;;4.15;2.35;;;13.80;99.90;;;;;;5033141;28;20080;-81
2021/07/17 03:35:04;;;;;;;8.57;2.65;;;13.80;99.90;;;;;;5031686;28;20037;-81
2021/07/17 03:37:30;;;;;;;5.65;2.45;;;13.80;99.90;;;;;;5032586;28;20065;-81
2021/07/17 03:39:56;;;;;;;8.15;3.50;;;13.90;99.90;;;;;;5024730;28;20431;-80
2021/07/17 03:42:21;;;;;;;6.22;3.33;;;14.00;99.90;;;;;;5032775;28;20371;-81
2021/07/17 03:44:47;;;;;;;6.75;3.17;;;14.00;99.90;;;;;;5031878;28;20057;-81
2021/07/17 03:47:13;;;;;;;6.82;3.30;;;13.90;99.90;;;;;;5032619;28;20510;-81
2021/07/17 03:49:39;;;;;;;6.82;2.85;;;13.90;99.90;;;;;;5031159;28;20077;-81
2021/07/17 03:52:04;;;;;;;7.20;2.58;;;13.80;99.90;;;;;;5012516;28;20049;-81
2021/07/17 03:54:30;;;;;;;5.50;2.88;;;13.80;99.90;;;;;;5011714;28;20059;-80
2021/07/17 03:56:56;;;;;;;5.93;2.80;;;13.80;99.90;;;;;;5024857;28;20687;-80
2021/07/17 03:59:21;;;;;;;4.28;2.47;;;13.70;99.90;;;;;;5012290;28;20033;-81
2021/07/17 04:01:47;;;;;;;3.47;1.77;;;13.70;99.90;;;;;;5031411;28;20375;-81
2021/07/17 04:04:13;;;;;;;4.43;1.70;;;13.70;99.90;;;;;;5031496;28;20042;-81
2021/07/17 04:06:40;;;;;;;2.95;1.30;;;13.80;99.90;;;;;;5031259;28;20520;-81
2021/07/17 04:09:06;;;;;;;9.50;1.52;;;13.80;99.90;;;;;;5031292;28;20041;-81
2021/07/17 04:11:33;;;;;;;3.38;1.30;;;13.80;99.90;;;;;;5031117;28;20034;-80
2021/07/17 04:13:58;;;;;;;6.82;1.40;;;13.90;99.90;;;;;;5031771;28;20033;-80
2021/07/17 04:16:24;;;;;;;5.00;2.15;;;13.90;99.90;;;;;;5031086;28;20034;-80
2021/07/17 04:18:49;;;;;;;6.97;3.08;;;14.00;99.90;;;;;;5012765;28;20054;-81
2021/07/17 04:21:15;;;;;;;5.93;2.42;;;13.90;99.90;;;;;;5026583;28;20037;-81
2021/07/17 04:23:41;;;;;;;5.88;3.28;;;13.90;99.90;;;;;;5031184;28;20036;-80
2021/07/17 04:26:07;;;;;;;5.95;2.65;;;13.90;99.90;;;;;;5030492;28;20045;-80
2021/07/17 04:28:34;;;;;;;4.95;2.17;;;13.90;99.90;;;;;;5031307;28;20048;-80
2021/07/17 04:31:00;;;;;;;9.77;2.67;;;14.00;99.90;;;;;;5031242;28;20027;-80
2021/07/17 04:33:26;;;;;;;4.35;1.80;;;13.90;99.90;;;;;;5050390;28;20033;-80
2021/07/17 04:35:52;;;;;;;6.28;1.83;;;13.90;99.90;;;;;;5051044;28;20021;-81
2021/07/17 04:38:17;;;;;;;7.68;1.98;;;13.90;99.90;;;;;;5033573;28;20041;-81
2021/07/17 04:40:43;;;;;;;5.47;1.88;;;13.80;99.90;;;;;;5031123;28;20561;-81
2021/07/17 04:43:09;;;;;;;5.80;1.77;;;13.80;99.90;;;;;;5030746;28;20483;-80
2021/07/17 04:45:34;;;;;;;4.10;1.77;;;13.80;99.90;;;;;;5031133;28;20029;-81
2021/07/17 04:48:04;;;;;;;6.10;1.90;;;13.80;99.90;;;;;;5029778;28;20033;-80
2021/07/17 04:50:30;;;;;;;4.50;1.83;;;13.70;99.90;;;;;;5032929;28;20475;-80
2021/07/17 04:52:56;;;;;;;3.50;2.00;;;13.80;99.90;;;;;;5029440;28;20026;-81
2021/07/17 04:55:21;;;;;;;5.18;1.92;;;13.80;99.90;;;;;;5030431;28;20029;-81
2021/07/17 04:57:47;;;;;;;6.15;1.92;;;13.70;99.90;;;;;;5030573;28;20037;-81
2021/07/17 05:00:13;;;;;;;5.38;1.80;;;13.80;99.90;;;;;;5030975;28;20037;-81
2021/07/17 05:02:50;;;;;;;2.47;1.10;;;13.90;99.90;;;;;;5030553;28;20037;-81
2021/07/17 05:05:19;;;;;;;3.67;1.35;;;14.20;99.90;;;;;;5030611;28;20889;-81
2021/07/17 05:07:46;;;;;;;3.75;1.42;;;14.60;99.90;;;;;;5030946;28;20041;-80
2021/07/17 05:10:13;;;;;;;5.30;1.75;;;15.00;99.90;;;;;;5029284;28;20401;-81
2021/07/17 05:12:39;;;;;;;5.68;1.30;;;15.30;99.90;;;;;;5030268;28;20033;-81
2021/07/17 05:15:07;;;;;;;4.88;1.80;;;15.60;99.90;;;;;;5030739;28;20029;-80
2021/07/17 05:17:33;;;;;;;4.50;2.13;;;15.90;99.90;;;;;;5028431;28;20406;-81
2021/07/17 05:19:59;;;;;;;4.00;1.67;;;16.10;99.90;;;;;;5017217;28;20030;-81
2021/07/17 05:22:25;;;;;;;11.18;2.63;;;16.20;99.90;;;;;;5022045;28;20044;-81
2021/07/17 05:24:51;;;;;;;5.57;1.98;;;16.10;99.90;;;;;;5018155;28;20038;-80
2021/07/17 05:27:16;;;;;;;6.95;2.35;;;16.20;99.90;;;;;;5018660;28;20051;-80
2021/07/17 05:29:42;;;;;;;7.40;3.50;;;16.30;99.90;;;;;;5030134;28;20091;-81
2021/07/17 05:32:08;;;;;;;5.18;3.10;;;16.60;99.90;;;;;;5024686;28;20037;-81
2021/07/17 05:34:34;;;;;;;9.25;3.55;;;16.80;99.90;;;;;;5029691;28;20029;-80
2021/07/17 05:37:00;;;;;;;5.95;2.90;;;17.00;99.90;;;;;;5030289;28;20033;-81
2021/07/17 05:39:26;;;;;;;4.95;1.52;;;17.10;99.90;;;;;;5029691;28;20381;-81
2021/07/17 05:41:51;;;;;;;5.68;1.25;;;16.80;99.90;;;;;;5028491;28;20106;-81
2021/07/17 05:44:17;;;;;;;6.18;1.20;;;17.00;99.90;;;;;;5030277;28;20029;-80
2021/07/17 05:46:43;;;;;;;6.07;1.30;;;17.10;99.90;;;;;;5027888;28;20390;-80
2021/07/17 05:49:08;;;;;;;4.38;1.13;;;17.10;99.90;;;;;;5030349;28;20125;-80
2021/07/17 05:51:34;;;;;;;7.85;1.17;;;17.30;99.90;;;;;;5026821;28;20091;-80
2021/07/17 05:53:59;;;;;;;3.80;1.20;;;17.50;99.90;;;;;;5028811;28;20036;-80
2021/07/17 05:56:25;;;;;;;2.30;0.60;;;17.60;99.90;;;;;;5029785;28;20376;-80
2021/07/17 05:58:51;;;;;;;5.80;1.17;;;17.80;99.90;;;;;;5030183;28;20029;-79
2021/07/17 06:01:17;;;;;;;2.47;1.00;;;18.00;99.90;;;;;;5028444;28;20034;-79
2021/07/17 06:03:44;;;;;;;2.83;0.90;;;18.20;99.90;;;;;;5029973;28;20060;-78
2021/07/17 06:06:09;;;;;;;6.47;1.75;;;18.40;99.90;;;;;;5026779;28;20461;-78
2021/07/17 06:15:53;;;;;;;3.97;1.90;;;18.70;99.90;;;;;;4886077;29;20207;-78
2021/07/17 06:19:06;;;;;;;3.15;1.30;;;18.90;99.90;;;;;;4909215;29;20130;-78
2021/07/17 06:30:00;;;;;;;1.98;0.88;;;19.70;99.90;;;;;;4962342;28;20198;-78
2021/07/17 06:33:04;;;;;;;;;;;;;;;;;;;;;
2021/07/17 06:39:46;;;;;;;2.95;0.80;;;19.50;99.90;;;;;;4963739;28;20118;-78
2021/07/17 06:42:43;;;;;;;;;;;;;;;;;;;;;
2021/07/17 06:56:51;;;;;;;7.32;1.05;;;20.00;99.90;;;;;;3278253;26;21428;-78
2021/07/17 06:59:17;;;;;;;3.40;1.10;;;20.20;99.90;;;;;;4958940;28;20043;-78
2021/07/17 07:01:42;;;;;;;2.83;1.52;;;20.10;99.90;;;;;;4973915;28;20058;-78
2021/07/17 07:04:08;;;;;;;3.92;0.98;;;19.80;99.90;;;;;;4976119;28;21009;-78
2021/07/17 07:06:33;;;;;;;4.68;1.15;;;19.90;99.90;;;;;;4980121;28;20169;-78
2021/07/17 07:12:40;;;;;;;5.90;0.90;;;19.90;99.90;;;;;;4400823;26;20111;-78
2021/07/17 07:19:29;;;;;;;1.73;0.93;;;19.80;99.90;;;;;;5021209;28;20069;-78
2021/07/17 07:25:45;;;;;;;3.75;0.70;;;19.70;99.90;;;;;;5046872;28;20486;-78
2021/07/17 07:28:40;;;;;;;5.68;0.98;;;20.20;99.90;;;;;;5026766;28;20037;-78
2021/07/17 07:32:17;;;;;;;2.33;0.82;;;20.70;99.90;;;;;;5009042;28;20038;-78
2021/07/17 07:35:26;;;;;;;2.22;0.93;;;21.00;99.90;;;;;;4945250;28;20038;-78
2021/07/17 07:38:30;;;;;;;;;;;;;;;;;;;;;
2021/07/17 07:41:36;;;;;;;2.58;0.90;;;21.40;99.90;;;;;;4913484;29;20040;-79
2021/07/17 07:44:16;;;;;;;2.03;0.70;;;21.50;99.90;;;;;;4941657;29;20489;-78
2021/07/17 07:47:51;;;;;;;3.08;0.98;;;21.50;99.90;;;;;;4944220;28;20039;-78
2021/07/17 07:50:49;;;;;;;3.58;1.00;;;21.50;99.90;;;;;;4949844;28;20031;-78
2021/07/17 07:53:45;;;;;;;;;;;;;;;;;;;;;
2021/07/17 07:56:24;;;;;;;;;;;;;;;;;;;;;
2021/07/17 07:58:53;;;;;;;4.13;1.48;;;21.40;99.90;;;;;;5025418;28;20377;-78
2021/07/17 08:01:27;;;;;;;3.15;0.80;;;21.40;99.90;;;;;;5016759;28;20042;-78
2021/07/17 08:04:04;;;;;;;2.25;1.00;;;21.60;99.90;;;;;;5012723;28;20056;-78
2021/07/17 08:06:44;;;;;;;3.85;1.10;;;21.50;99.90;;;;;;5022383;28;20029;-78
2021/07/17 08:12:11;;;;;;;1.33;0.70;;;21.20;99.90;;;;;;4988654;28;20058;-79
2021/07/17 08:14:39;;;;;;;1.80;0.98;;;21.30;99.90;;;;;;4969540;28;20080;-78
2021/07/17 08:17:13;;;;;;;2.13;0.70;;;21.20;99.90;;;;;;4985082;28;20035;-78
2021/07/17 08:19:42;;;;;;;2.58;1.02;;;21.30;99.90;;;;;;4970494;28;20037;-79
2021/07/17 08:22:12;;;;;;;2.00;0.90;;;22.00;99.90;;;;;;4979322;28;20033;-78
2021/07/17 08:24:43;;;;;;;2.70;0.70;;;22.00;99.90;;;;;;4975832;28;20041;-78
2021/07/17 08:27:09;;;;;;;2.30;0.90;;;21.80;99.90;;;;;;4996523;28;20038;-78
2021/07/17 08:29:37;;;;;;;4.43;0.90;;;21.90;99.90;;;;;;4981740;28;20046;-79
2021/07/17 08:32:14;;;;;;;1.40;0.90;;;22.00;99.90;;;;;;4974856;28;20499;-78
2021/07/17 08:34:42;;;;;;;2.17;0.90;;;21.60;99.90;;;;;;5004487;28;20082;-78
2021/07/17 08:37:16;;;;;;;3.95;0.80;;;21.80;99.90;;;;;;5006619;28;20603;-78
2021/07/17 08:39:46;;;;;;;4.82;1.23;;;22.00;99.90;;;;;;5009181;28;20053;-79
2021/07/17 08:42:20;;;;;;;4.10;1.08;;;21.90;99.90;;;;;;5022499;28;20071;-78
2021/07/17 08:44:49;;;;;;;1.88;0.90;;;22.00;99.90;;;;;;5009448;28;20054;-78
2021/07/17 08:47:28;;;;;;;5.63;1.13;;;21.90;99.90;;;;;;5020478;28;20037;-78
2021/07/17 08:50:04;;;;;;;2.42;1.13;;;21.80;99.90;;;;;;5012410;28;20042;-78
2021/07/17 08:52:39;;;;;;;3.50;1.20;;;21.90;99.90;;;;;;5019341;28;20439;-78
2021/07/17 08:55:20;;;;;;;2.40;1.00;;;22.10;99.90;;;;;;5013403;28;20034;-78
2021/07/17 08:58:00;;;;;;;4.55;1.23;;;21.90;99.90;;;;;;5010847;28;20034;-78
2021/07/17 09:00:44;;;;;;;5.00;0.90;;;22.20;99.90;;;;;;5009094;28;20113;-78
2021/07/17 09:03:52;;;;;;;2.53;0.90;;;22.50;99.90;;;;;;5007520;28;20065;-78
2021/07/17 09:09:51;;;;;;;4.22;1.00;;;22.50;99.90;;;;;;5023943;28;20110;-78
2021/07/17 09:12:40;;;;;;;2.30;0.90;;;23.10;99.90;;;;;;4977756;28;20045;-78
2021/07/17 09:18:52;;;;;;;2.22;0.85;;;23.80;99.90;;;;;;5022832;28;20140;-78
2021/07/17 09:25:39;;;;;;;;;;;;;;;;;;;;;
2021/07/17 09:31:53;;;;;;;3.17;0.75;;;23.40;99.90;;;;;;5024459;28;20055;-78
2021/07/17 09:34:38;;;;;;;2.45;1.00;;;23.30;99.90;;;;;;5037172;28;20073;-78
2021/07/17 09:37:33;;;;;;;4.60;0.80;;;22.90;99.90;;;;;;5008134;28;20035;-79
2021/07/17 09:40:20;;;;;;;2.83;0.70;;;23.10;99.90;;;;;;5012337;28;20114;-78
2021/07/17 09:42:53;;;;;;;4.63;0.85;;;23.20;99.90;;;;;;5025625;28;20033;-78
2021/07/17 09:45:58;;;;;;;;;;;;;;;;;;;;;
2021/07/17 09:51:36;;;;;;;1.52;0.90;;;24.00;99.90;;;;;;5060615;23;20061;-78
2021/07/17 09:54:34;;;;;;;;;;;24.50;99.90;;;;;;5010291;28;20482;-78
2021/07/17 09:57:03;;;;;;;4.63;0.77;;;24.90;99.90;;;;;;5010117;28;20302;-78
2021/07/17 10:03:35;;;;;;;;;;;;;;;;;;;;;
2021/07/17 10:10:40;;;;;;;2.08;0.77;;;24.00;99.90;;;;;;4964775;28;20148;-79
2021/07/17 10:13:28;;;;;;;1.60;0.80;;;24.00;99.90;;;;;;5022122;28;20304;-78
2021/07/17 10:16:19;;;;;;;2.17;0.70;;;23.80;99.90;;;;;;5035570;28;20537;-78
2021/07/17 10:19:03;;;;;;;4.95;0.80;;;24.00;99.90;;;;;;5041991;28;20140;-78
2021/07/17 10:21:41;;;;;;;2.30;0.90;;;23.90;99.90;;;;;;5036819;28;20435;-78
2021/07/17 10:27:29;;;;;;;;;;;;;;;;;;;;;
2021/07/17 10:30:39;;;;;;;2.38;1.20;;;23.70;99.90;;;;;;5029578;28;20043;-78
2021/07/17 10:33:17;;;;;;;2.92;1.10;;;24.10;99.90;;;;;;5026605;28;20046;-78
2021/07/17 10:39:20;;;;;;;2.40;1.00;;;24.30;99.90;;;;;;5025500;28;20497;-78
2021/07/17 10:42:22;;;;;;;;;;;;;;;;;;;;;
2021/07/17 10:45:50;;;;;;;2.22;1.02;;;24.70;99.90;;;;;;5017263;28;20049;-78
2021/07/17 10:58:48;;;;;;;2.90;1.00;;;25.00;99.90;;;;;;4806250;29;20081;-78
2021/07/17 11:02:04;;;;;;;;;;;;;;;;;;;;;
2021/07/17 11:14:47;;;;;;;3.63;1.50;;;25.40;99.90;;;;;;912655;26;20306;-78
2021/07/17 11:17:32;;;;;;;;;;;25.50;99.90;;;;;;5013225;28;20037;-78
2021/07/17 11:20:59;;;;;;;;;;;;;;;;;;;;;
2021/07/17 11:24:13;;;;;;;3.10;1.40;;;26.00;99.90;;;;;;5009573;28;20057;-78
2021/07/17 11:31:14;;;;;;;2.45;1.17;;;25.90;99.90;;;;;;4942725;23;20085;-78
2021/07/17 11:37:20;;;;;;;4.15;1.35;;;26.00;99.90;;;;;;3224292;26;20083;-78
2021/07/17 11:40:40;;;;;;;;;;;;;;;;;;;;;
2021/07/17 11:43:56;;;;;;;2.92;1.45;;;26.50;99.90;;;;;;5038243;28;20086;-78
2021/07/17 11:46:33;;;;;;;4.35;1.58;;;26.60;99.90;;;;;;5006900;28;20048;-78
2021/07/17 11:50:02;;;;;;;2.42;1.50;;;26.60;99.90;;;;;;4994981;28;20040;-78
2021/07/17 11:53:09;;;;;;;;;;;;;;;;;;;;;
2021/07/17 11:56:18;;;;;;;3.80;1.45;;;26.80;99.90;;;;;;4975150;28;20052;-78
2021/07/17 11:59:37;;;;;;;5.65;1.40;;;26.80;99.90;;;;;;4940229;28;20158;-78
2021/07/17 12:02:37;;;;;;;2.85;1.42;;;26.90;99.90;;;;;;4951731;28;20092;-78
2021/07/17 12:06:05;;;;;;;8.90;1.60;;;26.60;99.90;;;;;;4948305;28;20126;-78
2021/07/17 12:09:26;;;;;;;2.38;1.42;;;27.00;99.90;;;;;;4897869;29;20048;-77
2021/07/17 12:16:07;;;;;;;2.33;1.40;;;26.70;99.90;;;;;;4777667;30;20043;-78
2021/07/17 12:19:27;;;;;;;;;;;;;;;;;;;;;
2021/07/17 12:36:47;;;;;;;4.10;1.77;;;26.70;99.90;;;;;;4955895;28;20043;-78
2021/07/17 12:39:53;;;;;;;5.15;1.60;;;26.50;99.90;;;;;;4838295;29;20050;-78
2021/07/17 12:46:48;;;;;;;4.85;1.90;;;26.70;99.90;;;;;;4914392;29;20899;-77
2021/07/17 12:49:41;;;;;;;3.03;2.00;;;26.70;99.90;;;;;;5003171;28;20056;-78
2021/07/17 12:55:59;;;;;;;3.70;2.20;;;26.60;99.90;;;;;;4969429;28;20029;-78
2021/07/17 13:02:06;;;;;;;;;;;;;;;;;;;;;
2021/07/17 13:05:17;;;;;;;3.75;2.00;;;26.60;99.90;;;;;;4905173;29;20036;-78
2021/07/17 13:08:48;;;;;;;;;;;;;;;;;;;;;
2021/07/17 13:16:14;;;;;;;3.90;2.05;;;25.60;99.90;;;;;;4896939;29;20075;-78
2021/07/17 13:19:50;;;;;;;3.78;2.35;;;25.80;99.90;;;;;;4909969;29;20048;-78
2021/07/17 13:23:23;;;;;;;;;;;;;;;;;;;;;
2021/07/17 13:26:31;;;;;;;3.55;2.10;;;26.10;99.90;;;;;;4883843;29;20119;-78
2021/07/17 13:32:37;;;;;;;4.80;1.95;;;26.20;99.90;;;;;;4994781;28;20079;-78
2021/07/17 13:39:03;;;;;;;8.65;2.50;;;;;;;;;;5031573;23;20181;-78
2021/07/17 13:57:46;;;;;;;4.15;2.63;;;27.00;99.90;;;;;;4907368;29;20067;-78
2021/07/17 14:29:18;;;;;;;;;;;;;;;;;;;;;
2021/07/17 14:40:10;;;;;;;4.15;2.65;;;26.90;99.90;;;;;;3244532;26;20056;-78
2021/07/17 14:42:36;;;;;;;4.47;2.63;;;27.00;99.90;;;;;;5012773;28;20037;-78
2021/07/17 14:45:03;;;;;;;5.30;3.28;;;27.10;99.90;;;;;;5011603;28;20038;-78
2021/07/17 14:47:29;;;;;;;5.45;3.13;;;27.10;99.90;;;;;;5010459;28;20502;-78
2021/07/17 14:49:55;;;;;;;4.60;3.00;;;27.20;99.90;;;;;;5017631;28;20056;-76
2021/07/17 14:52:20;;;;;;;3.88;3.00;;;27.00;99.90;;;;;;5030732;28;21095;-78
2021/07/17 15:11:12;;;;;;;5.38;3.40;;;26.90;99.90;;;;;;1456949;26;20129;-76
2021/07/17 15:13:38;;;;;;;6.55;3.60;;;26.90;99.90;;;;;;5010794;28;20133;-77
2021/07/17 15:16:04;;;;;;;5.78;4.13;;;26.90;99.90;;;;;;4988035;28;20038;-77
2021/07/17 15:18:30;;;;;;;5.85;3.28;;;26.80;99.90;;;;;;4993211;28;20029;-78
2021/07/17 15:20:56;;;;;;;6.18;3.22;;;26.90;99.90;;;;;;5014424;28;20038;-77
2021/07/17 15:23:23;;;;;;;4.53;2.58;;;27.00;99.90;;;;;;5003616;28;20376;-77
2021/07/17 15:25:49;;;;;;;7.38;2.83;;;27.00;99.90;;;;;;4995438;28;20030;-77
2021/07/17 15:28:15;;;;;;;7.00;3.53;;;27.20;99.90;;;;;;4993729;28;20029;-77
2021/07/17 15:30:43;;;;;;;4.57;2.80;;;27.30;99.90;;;;;;5016011;28;20108;-77
2021/07/17 15:33:09;;;;;;;4.22;2.83;;;27.30;99.90;;;;;;5000000;28;20026;-77
2021/07/17 15:35:36;;;;;;;6.53;3.35;;;27.00;99.90;;;;;;4992275;28;20084;-77
2021/07/17 15:38:03;;;;;;;5.63;3.00;;;27.10;99.90;;;;;;5006176;28;20030;-77
2021/07/17 15:53:21;;;;;;;;;;;26.90;99.90;;;;;;5005413;28;20048;-77
2021/07/17 16:46:07;;;;;;;4.65;3.38;;;25.90;99.90;;;;;;4989736;28;20060;-77
2021/07/17 16:48:52;;;;;;;6.10;3.45;;;25.90;99.90;;;;;;4986776;28;20038;-78
2021/07/17 16:51:21;;;;;;;5.82;3.65;;;25.80;99.90;;;;;;4995763;28;20034;-77
2021/07/17 16:53:49;;;;;;;5.93;3.42;;;25.80;99.90;;;;;;4990516;28;20049;-78
2021/07/17 16:56:15;;;;;;;6.68;3.85;;;25.80;99.90;;;;;;5000225;28;20034;-78
2021/07/17 16:58:41;;;;;;;8.00;5.00;;;25.70;99.90;;;;;;4985958;28;20084;-78
2021/07/17 17:01:07;;;;;;;7.03;3.63;;;25.70;99.90;;;;;;4969707;28;20117;-77
2021/07/17 17:03:32;;;;;;;5.30;3.80;;;25.60;99.90;;;;;;4989688;28;20425;-78
2021/07/17 17:05:58;;;;;;;5.10;3.35;;;25.50;99.90;;;;;;4994517;28;20034;-77
2021/07/17 17:08:24;;;;;;;6.43;3.33;;;25.50;99.90;;;;;;5008727;28;20026;-77
2021/07/17 17:10:51;;;;;;;6.70;3.17;;;25.50;99.90;;;;;;4985570;28;20092;-77
2021/07/17 17:13:24;;;;;;;5.65;3.30;;;25.40;99.90;;;;;;4985459;28;20031;-77
2021/07/17 17:15:52;;;;;;;6.57;3.47;;;25.40;99.90;;;;;;5005700;28;20034;-77
2021/07/17 17:18:19;;;;;;;6.65;4.32;;;25.40;99.90;;;;;;4984792;28;20068;-77
2021/07/17 17:20:46;;;;;;;8.55;6.07;;;25.30;99.90;;;;;;5006329;28;20026;-77
2021/07/17 17:23:12;;;;;;;21.20;11.88;;;25.30;99.90;;;;;;5003356;28;20085;-77
2021/07/17 17:25:37;;;;;;;23.23;14.48;;;25.20;99.90;;;;;;5000106;28;20034;-77
2021/07/17 17:28:05;;;;;;;20.27;14.77;;;25.20;99.90;;;;;;5005926;28;20030;-77
2021/07/17 17:30:31;;;;;;;21.02;14.77;;;25.20;99.90;;;;;;4983230;28;20063;-77
2021/07/17 17:32:58;;;;;;;7.22;4.72;;;25.20;99.90;;;;;;4991032;28;20060;-77
2021/07/17 17:35:23;;;;;;;8.65;4.13;;;25.20;99.90;;;;;;4991341;28;20085;-77
2021/07/17 17:37:49;;;;;;;6.85;3.78;;;25.20;99.90;;;;;;5000169;28;20427;-78
2021/07/17 17:40:16;;;;;;;7.35;4.88;;;25.20;99.90;;;;;;4982227;28;20034;-77
2021/07/17 17:42:42;;;;;;;10.18;7.00;;;25.10;99.90;;;;;;4991829;28;20033;-77
2021/07/17 17:45:09;;;;;;;10.70;5.78;;;25.10;99.90;;;;;;5006396;28;20030;-77
2021/07/17 17:47:35;;;;;;;9.35;6.65;;;25.10;99.90;;;;;;4999106;28;20061;-77
2021/07/17 17:50:01;;;;;;;9.60;5.40;;;25.10;99.90;;;;;;5009776;28;20474;-77
2021/07/17 17:52:26;;;;;;;6.80;4.32;;;25.10;99.90;;;;;;5007358;28;20083;-77
2021/07/17 17:54:52;;;;;;;7.20;4.53;;;25.00;99.90;;;;;;5005789;28;20026;-77
2021/07/17 17:57:18;;;;;;;5.70;4.18;;;24.90;99.90;;;;;;4990102;28;20042;-77
2021/07/17 17:59:48;;;;;;;7.15;3.92;;;24.90;99.90;;;;;;4979863;28;20045;-77
2021/07/17 18:02:15;;;;;;;7.30;4.45;;;24.80;99.90;;;;;;4999277;28;20092;-77
2021/07/17 18:04:41;;;;;;;7.13;4.00;;;24.80;99.90;;;;;;5010083;28;20089;-77
2021/07/17 18:07:10;;;;;;;9.30;4.72;;;24.60;99.90;;;;;;5002573;28;20025;-77
2021/07/17 18:09:36;;;;;;;6.57;4.45;;;24.60;99.90;;;;;;5009458;28;20083;-77
2021/07/17 18:24:16;;;;;;;;;;;;;;;;;;;;;
2021/07/17 18:34:30;;;;;;;;;;;;;;;;;;;;;
2021/07/17 18:37:41;;;;;;;;;;;;;;;;;;;;;
2021/07/17 18:41:21;;;;;;;;;;;;;;;;;;;;;
2021/07/17 20:24:50;;;;;;;8.82;4.72;;;21.00;99.90;;;;;;4727490;30;20529;-77
2021/07/17 20:26:47;;;;;;;7.60;5.53;;;21.00;99.90;;;;;;4691802;30;20113;-78
2021/07/17 20:37:42;;;;;;;11.20;5.68;;;20.70;99.90;;;;;;4748559;30;20051;-82
2021/07/17 20:40:11;;;;;;;8.40;5.90;;;20.60;99.90;;;;;;4759873;30;20984;-80